Time;durP1;ratioP1;P1;durP2;ratioP2;P2;SDS_P1;SDS_P2;PMS_P1;PMS_P2;Temp;Humidity;BMP_temperature;BMP_pressure;BME280_temperature;BME280_humidity;BME280_pressure;Samples;Min_cycle;Max_cycle;Signal;HPM_P1;HPM_P2
2021/03/13 00:00:11;;;;;;;5.60;3.50;;;6.50;92.90;13.90;98964.00;;;;5032479;28;20324;-66
2021/03/13 00:02:41;;;;;;;4.85;3.05;;;6.50;92.90;14.00;98961.00;;;;5032984;28;20182;-66
2021/03/13 00:05:07;;;;;;;6.18;2.85;;;6.50;92.90;14.00;98968.00;;;;5033549;28;20680;-66
2021/03/13 00:07:33;;;;;;;5.93;3.22;;;6.50;92.90;13.80;98968.00;;;;5049732;28;20253;-66
2021/03/13 00:09:59;;;;;;;5.70;2.93;;;6.50;92.90;13.90;98971.00;;;;5032497;28;20233;-66
2021/03/13 00:12:25;;;;;;;5.80;3.63;;;6.50;92.90;13.90;98964.00;;;;5048970;28;20178;-67
2021/03/13 00:14:50;;;;;;;5.40;3.03;;;6.50;92.90;13.90;98966.00;;;;5048776;28;20588;-66
2021/03/13 00:17:17;;;;;;;5.90;3.50;;;6.50;92.90;14.00;98958.00;;;;5015938;28;20660;-66
2021/03/13 00:19:43;;;;;;;4.63;3.10;;;6.50;92.90;14.00;98961.00;;;;5032711;28;20539;-66
2021/03/13 00:22:09;;;;;;;6.13;3.90;;;6.50;92.90;14.10;98970.00;;;;5015153;28;20189;-66
2021/03/13 00:24:35;;;;;;;6.80;3.50;;;6.40;92.80;14.00;98970.00;;;;5032204;28;20178;-68
2021/03/13 00:27:01;;;;;;;5.13;3.38;;;6.50;92.90;14.10;98971.00;;;;5047653;28;20304;-67
2021/03/13 00:29:26;;;;;;;4.70;3.43;;;6.40;92.80;14.10;98964.00;;;;5050191;28;20278;-66
2021/03/13 00:31:54;;;;;;;6.00;3.60;;;6.40;92.80;14.00;98965.00;;;;5032342;28;20970;-66
2021/03/13 00:34:21;;;;;;;6.57;3.70;;;6.40;92.80;13.90;98961.00;;;;5031806;28;20236;-66
2021/03/13 00:36:47;;;;;;;4.90;3.10;;;6.40;92.80;14.00;98964.00;;;;5032007;28;20775;-66
2021/03/13 00:39:14;;;;;;;6.50;3.70;;;6.40;92.90;13.90;98966.00;;;;5032382;28;20178;-66
2021/03/13 00:41:40;;;;;;;6.30;4.13;;;6.40;92.80;14.00;98963.00;;;;5047847;28;20202;-66
2021/03/13 00:44:06;;;;;;;6.80;4.37;;;6.40;92.80;14.00;98955.00;;;;5049018;28;20189;-66
2021/03/13 00:46:32;;;;;;;5.15;3.53;;;6.40;92.80;14.00;98963.00;;;;5048815;28;20214;-66
2021/03/13 00:48:57;;;;;;;5.30;2.90;;;6.40;92.80;14.00;98965.00;;;;5031532;28;20198;-66
2021/03/13 00:51:23;;;;;;;6.03;3.67;;;6.40;92.80;13.80;98953.00;;;;5048531;28;20232;-67
2021/03/13 00:53:49;;;;;;;6.93;3.47;;;6.40;92.80;13.90;98947.00;;;;5048895;28;20720;-67
2021/03/13 00:56:15;;;;;;;5.70;3.60;;;6.40;92.80;13.90;98950.00;;;;5030591;28;20476;-66
2021/03/13 00:58:41;;;;;;;5.33;3.40;;;6.40;92.80;14.00;98957.00;;;;5048674;28;20897;-67
2021/03/13 01:01:06;;;;;;;8.30;4.30;;;6.40;92.80;14.00;98959.00;;;;5048297;28;20206;-66
2021/03/13 01:03:32;;;;;;;5.90;3.43;;;6.40;92.80;13.80;98947.00;;;;5048097;28;20684;-67
2021/03/13 01:05:58;;;;;;;5.63;3.30;;;6.40;92.80;13.80;98941.00;;;;5031452;28;20205;-66
2021/03/13 01:08:24;;;;;;;5.33;3.80;;;6.40;92.80;13.80;98954.00;;;;5049911;28;20908;-66
2021/03/13 01:10:50;;;;;;;5.20;3.77;;;6.40;92.80;13.90;98941.00;;;;5047388;28;20194;-66
2021/03/13 01:13:19;;;;;;;5.38;3.20;;;6.40;92.80;13.80;98946.00;;;;5032277;28;20231;-66
2021/03/13 01:15:44;;;;;;;6.80;4.50;;;6.40;92.80;13.70;98947.00;;;;5032212;28;20220;-66
2021/03/13 01:18:10;;;;;;;6.33;3.80;;;6.40;92.80;13.80;98944.00;;;;5030902;28;20658;-66
2021/03/13 01:20:36;;;;;;;7.40;4.03;;;6.40;92.80;13.80;98938.00;;;;5031663;28;20684;-66
2021/03/13 01:23:02;;;;;;;7.07;4.20;;;6.40;92.80;13.90;98947.00;;;;5030821;28;20178;-66
2021/03/13 01:25:28;;;;;;;5.72;3.80;;;6.40;92.80;13.80;98946.00;;;;5015016;28;20220;-66
2021/03/13 01:27:54;;;;;;;6.00;4.13;;;6.40;92.80;14.00;98926.00;;;;5047682;28;20241;-66
2021/03/13 01:30:21;;;;;;;6.53;3.80;;;6.40;92.80;13.90;98928.00;;;;5049950;28;20206;-66
2021/03/13 01:32:48;;;;;;;6.10;3.95;;;6.40;92.80;13.80;98908.00;;;;5031986;28;20265;-66
2021/03/13 01:35:14;;;;;;;6.65;4.13;;;6.30;92.70;13.90;98932.00;;;;5048610;28;20254;-66
2021/03/13 01:37:40;;;;;;;6.38;4.00;;;6.40;92.80;13.80;98941.00;;;;5047696;28;20667;-66
2021/03/13 01:40:10;;;;;;;5.87;3.77;;;6.40;92.80;13.90;98933.00;;;;5053752;28;20715;-66
2021/03/13 01:42:36;;;;;;;6.63;3.60;;;6.30;92.80;13.90;98935.00;;;;5052795;28;20187;-66
2021/03/13 01:45:05;;;;;;;5.80;3.90;;;6.30;92.80;13.90;98917.00;;;;5035025;28;20564;-66
2021/03/13 01:47:31;;;;;;;6.07;3.75;;;6.30;92.80;13.90;98924.00;;;;5051272;28;20294;-65
2021/03/13 01:49:56;;;;;;;5.20;3.73;;;6.30;92.70;13.80;98918.00;;;;5052370;28;20532;-66
2021/03/13 01:52:22;;;;;;;5.37;3.50;;;6.30;92.70;13.70;98905.00;;;;5067439;28;20277;-66
2021/03/13 01:54:48;;;;;;;5.83;3.80;;;6.30;92.70;13.60;98902.00;;;;5050867;28;20206;-65
2021/03/13 01:57:17;;;;;;;6.40;3.77;;;6.30;92.70;13.60;98905.00;;;;5051395;28;20447;-66
2021/03/13 01:59:43;;;;;;;7.05;4.50;;;6.30;92.80;13.60;98905.00;;;;5051349;28;20425;-66
2021/03/13 02:02:10;;;;;;;5.43;3.87;;;6.30;92.70;13.80;98910.00;;;;5052691;28;20517;-66
2021/03/13 02:04:36;;;;;;;6.25;3.78;;;6.30;92.80;13.80;98902.00;;;;5051530;28;20414;-66
2021/03/13 02:07:12;;;;;;;6.75;4.00;;;6.30;92.80;13.70;98897.00;;;;5051565;28;20335;-66
2021/03/13 02:09:42;;;;;;;7.80;4.70;;;6.30;92.80;13.60;98891.00;;;;5051906;28;20182;-66
2021/03/13 02:12:40;;;;;;;6.78;4.05;;;6.30;92.70;13.70;98902.00;;;;5050943;28;20182;-66
2021/03/13 02:15:12;;;;;;;5.75;4.03;;;6.30;93.20;13.60;98896.00;;;;5026745;28;20505;-66
2021/03/13 02:18:29;;;;;;;6.25;4.22;;;6.30;92.80;13.70;98905.00;;;;5050813;28;20269;-66
2021/03/13 02:21:27;;;;;;;6.00;3.78;;;6.30;92.80;13.60;98900.00;;;;5032302;28;20582;-65
2021/03/13 02:24:16;;;;;;;6.80;3.53;;;6.30;92.80;13.50;98889.00;;;;5050964;28;20580;-66
2021/03/13 02:27:14;;;;;;;5.97;3.50;;;6.30;92.70;13.60;98909.00;;;;5034629;28;20217;-66
2021/03/13 02:29:46;;;;;;;5.97;4.43;;;6.30;92.70;13.80;98900.00;;;;5051236;28;20539;-66
2021/03/13 02:32:34;;;;;;;5.32;3.70;;;6.30;92.80;13.70;98898.00;;;;5051061;28;20568;-66
2021/03/13 02:35:20;;;;;;;6.13;3.83;;;6.30;92.70;13.70;98893.00;;;;5050242;28;20230;-66
2021/03/13 02:37:47;;;;;;;6.75;4.10;;;6.30;92.70;13.80;98896.00;;;;5051066;28;20633;-66
2021/03/13 02:40:17;;;;;;;5.70;3.55;;;6.30;92.70;13.80;98894.00;;;;5034181;28;20202;-66
2021/03/13 02:42:48;;;;;;;6.05;3.70;;;6.30;92.70;13.70;98890.00;;;;5033655;28;20170;-66
2021/03/13 02:45:14;;;;;;;5.63;3.40;;;6.30;92.70;13.70;98892.00;;;;5050986;28;20560;-65
2021/03/13 02:47:41;;;;;;;6.10;3.83;;;6.30;92.80;13.90;98891.00;;;;5033222;28;20211;-66
2021/03/13 02:50:08;;;;;;;5.43;4.00;;;6.20;92.70;13.80;98892.00;;;;5049869;28;20434;-66
2021/03/13 02:52:34;;;;;;;6.05;3.78;;;6.20;92.70;13.70;98889.00;;;;5034053;28;20186;-67
2021/03/13 02:55:00;;;;;;;6.90;4.33;;;6.20;92.70;13.90;98878.00;;;;5049888;28;20735;-66
2021/03/13 02:57:26;;;;;;;6.70;3.90;;;6.20;92.70;13.70;98880.00;;;;5050732;28;20174;-67
2021/03/13 02:59:55;;;;;;;6.00;4.30;;;6.20;92.70;13.80;98857.00;;;;5050612;28;20260;-66
2021/03/13 03:02:20;;;;;;;5.88;3.53;;;6.20;92.70;13.80;98874.00;;;;5050233;28;20261;-66
2021/03/13 03:04:47;;;;;;;5.60;3.80;;;6.20;92.60;14.00;98876.00;;;;5050510;28;20217;-66
2021/03/13 03:07:13;;;;;;;5.03;3.33;;;6.30;92.70;13.90;98876.00;;;;5034442;28;20225;-66
2021/03/13 03:09:39;;;;;;;5.97;3.70;;;6.20;92.70;13.80;98876.00;;;;5033301;28;20672;-67
2021/03/13 03:12:06;;;;;;;6.20;3.67;;;6.20;92.60;13.90;98884.00;;;;5033484;28;20182;-67
2021/03/13 03:14:31;;;;;;;5.65;3.95;;;6.20;92.70;13.80;98879.00;;;;5033402;28;20209;-66
2021/03/13 03:17:01;;;;;;;4.73;3.33;;;6.20;92.60;13.70;98877.00;;;;5049931;28;20295;-66
2021/03/13 03:19:27;;;;;;;5.32;3.72;;;6.20;92.70;14.00;98884.00;;;;5033212;28;20190;-66
2021/03/13 03:21:53;;;;;;;4.93;3.10;;;6.20;92.70;13.80;98883.00;;;;5050372;28;20198;-66
2021/03/13 03:24:19;;;;;;;6.03;4.05;;;6.20;92.70;13.70;98874.00;;;;5049375;28;20192;-66
2021/03/13 03:26:45;;;;;;;5.77;3.20;;;6.20;92.70;13.90;98874.00;;;;5049850;28;20308;-66
2021/03/13 03:29:10;;;;;;;5.70;3.50;;;6.20;92.70;13.60;98874.00;;;;5032873;28;20423;-67
2021/03/13 03:31:36;;;;;;;5.13;3.13;;;6.20;92.70;13.70;98867.00;;;;5033187;28;20511;-66
2021/03/13 03:34:03;;;;;;;5.30;3.50;;;6.20;92.70;13.80;98863.00;;;;5049694;28;20178;-66
2021/03/13 03:36:29;;;;;;;5.80;3.58;;;6.20;92.70;13.70;98871.00;;;;5049456;28;20973;-66
2021/03/13 03:38:57;;;;;;;5.17;3.27;;;6.20;92.70;13.70;98864.00;;;;5048856;28;20178;-66
2021/03/13 03:41:23;;;;;;;5.00;3.17;;;6.20;92.70;13.70;98871.00;;;;5049797;28;20202;-66
2021/03/13 03:43:52;;;;;;;5.53;3.20;;;6.20;92.70;13.50;98863.00;;;;5032586;28;20192;-67
2021/03/13 03:46:18;;;;;;;4.32;2.83;;;6.20;92.60;13.40;98863.00;;;;5049752;28;20785;-66
2021/03/13 03:48:44;;;;;;;4.90;3.20;;;6.20;92.70;13.80;98856.00;;;;5049627;28;20255;-66
2021/03/13 03:51:13;;;;;;;5.00;2.95;;;6.20;92.60;13.70;98869.00;;;;5048998;28;20209;-66
2021/03/13 03:53:44;;;;;;;6.43;3.15;;;6.20;92.70;13.60;98866.00;;;;5049721;28;20217;-66
2021/03/13 03:56:10;;;;;;;4.93;3.00;;;6.20;92.70;13.40;98866.00;;;;5049575;28;20297;-67
2021/03/13 03:58:41;;;;;;;5.30;3.50;;;6.20;92.70;13.50;98871.00;;;;5032059;28;20688;-67
2021/03/13 04:01:07;;;;;;;5.18;3.25;;;6.20;92.60;13.80;98857.00;;;;5049375;28;20467;-66
2021/03/13 04:03:38;;;;;;;6.38;3.70;;;6.20;92.70;13.70;98850.00;;;;5015332;28;20584;-66
2021/03/13 04:06:06;;;;;;;5.88;3.60;;;6.20;92.60;13.50;98857.00;;;;5048559;28;20225;-66
2021/03/13 04:08:32;;;;;;;5.90;3.15;;;6.20;92.60;13.40;98861.00;;;;5049128;28;20216;-66
2021/03/13 04:10:58;;;;;;;5.30;3.20;;;6.10;92.60;13.40;98869.00;;;;5049028;28;20673;-66
2021/03/13 04:13:23;;;;;;;5.10;2.93;;;6.10;92.60;13.60;98874.00;;;;5049963;28;20193;-66
2021/03/13 04:15:49;;;;;;;4.40;2.70;;;6.20;92.60;13.30;98860.00;;;;5032601;28;20216;-66
2021/03/13 04:18:16;;;;;;;7.20;3.60;;;6.10;92.60;13.40;98875.00;;;;5048567;28;20186;-66
2021/03/13 04:20:45;;;;;;;4.22;2.70;;;6.10;92.60;13.40;98868.00;;;;5048537;28;20456;-66
2021/03/13 04:23:11;;;;;;;5.72;3.40;;;6.10;92.60;13.60;98868.00;;;;5049047;28;20830;-66
2021/03/13 04:25:37;;;;;;;4.90;2.80;;;6.10;92.60;13.30;98874.00;;;;5031852;28;20292;-66
2021/03/13 04:28:04;;;;;;;5.50;3.17;;;6.10;92.60;13.40;98879.00;;;;5048394;28;20476;-66
2021/03/13 04:30:29;;;;;;;4.88;2.75;;;6.10;92.60;13.40;98902.00;;;;5032134;28;20618;-66
2021/03/13 04:32:57;;;;;;;4.27;2.50;;;6.10;92.60;13.40;98881.00;;;;5032146;28;20182;-66
2021/03/13 04:35:24;;;;;;;4.53;2.75;;;6.10;92.60;13.50;98893.00;;;;5048586;28;20221;-66
2021/03/13 04:37:50;;;;;;;4.97;2.65;;;6.10;92.60;13.40;98881.00;;;;5049307;28;20178;-66
2021/03/13 04:40:16;;;;;;;5.23;2.90;;;6.10;92.60;13.40;98888.00;;;;5048406;28;20208;-66
2021/03/13 04:42:43;;;;;;;5.00;2.60;;;6.10;92.60;13.40;98882.00;;;;5032079;28;20488;-67
2021/03/13 04:45:10;;;;;;;5.43;3.17;;;6.10;92.60;13.40;98884.00;;;;5048289;28;20206;-66
2021/03/13 04:47:41;;;;;;;5.45;2.72;;;6.10;92.60;13.50;98896.00;;;;5048369;28;20300;-67
2021/03/13 04:50:07;;;;;;;5.50;2.92;;;6.10;92.60;13.30;98865.00;;;;5065360;28;20695;-66
2021/03/13 04:52:33;;;;;;;5.68;2.85;;;6.10;92.60;13.60;98902.00;;;;5032720;28;20220;-67
2021/03/13 04:54:59;;;;;;;4.60;2.73;;;6.10;92.60;13.60;98898.00;;;;5047742;28;20209;-66
2021/03/13 04:57:24;;;;;;;4.33;2.60;;;6.10;92.60;13.30;98909.00;;;;5048636;28;20232;-66
2021/03/13 04:59:50;;;;;;;4.40;2.50;;;6.10;92.60;13.60;98905.00;;;;5048458;28;20645;-66
2021/03/13 05:02:16;;;;;;;5.13;3.10;;;6.10;92.60;13.40;98897.00;;;;5048184;28;20178;-66
2021/03/13 05:04:42;;;;;;;4.70;2.60;;;6.10;92.60;13.40;98883.00;;;;5081823;28;20252;-66
2021/03/13 05:07:08;;;;;;;5.10;3.00;;;6.10;92.60;13.30;98881.00;;;;5048764;28;20450;-67
2021/03/13 05:09:33;;;;;;;5.40;2.90;;;6.10;92.60;13.30;98889.00;;;;5064130;28;20251;-66
2021/03/13 05:12:00;;;;;;;4.20;2.50;;;6.10;92.60;13.20;98880.00;;;;5049518;28;20248;-66
2021/03/13 05:14:26;;;;;;;4.30;2.55;;;6.10;92.60;13.20;98878.00;;;;5034293;28;20177;-66
2021/03/13 05:16:52;;;;;;;5.23;2.63;;;6.10;92.60;13.10;98883.00;;;;5051854;28;20612;-66
2021/03/13 05:19:18;;;;;;;3.67;2.03;;;6.10;92.60;13.10;98878.00;;;;5086202;28;20842;-67
2021/03/13 05:21:43;;;;;;;5.87;3.10;;;6.10;92.60;13.20;98885.00;;;;5052056;28;20189;-66
2021/03/13 05:24:09;;;;;;;4.47;2.47;;;6.00;92.50;13.10;98901.00;;;;5035261;28;20795;-68
2021/03/13 05:26:35;;;;;;;4.67;3.00;;;6.00;92.50;13.30;98892.00;;;;5053041;28;20216;-66
2021/03/13 05:29:01;;;;;;;4.03;2.40;;;6.10;92.60;13.20;98897.00;;;;5051964;28;20824;-66
2021/03/13 05:31:27;;;;;;;5.57;3.30;;;6.10;92.60;13.10;98886.00;;;;5051898;28;20464;-66
2021/03/13 05:33:52;;;;;;;4.60;2.70;;;6.00;92.60;13.20;98882.00;;;;5053375;28;20230;-66
2021/03/13 05:36:18;;;;;;;4.50;2.87;;;6.00;92.50;13.20;98881.00;;;;5052786;28;20237;-66
2021/03/13 05:38:44;;;;;;;4.50;2.70;;;6.00;92.60;13.10;98885.00;;;;5051967;28;20632;-67
2021/03/13 05:41:10;;;;;;;5.53;2.80;;;6.00;92.60;13.10;98885.00;;;;5051815;28;20566;-66
2021/03/13 05:43:36;;;;;;;5.55;2.88;;;6.10;92.60;13.10;98891.00;;;;5068351;28;20215;-66
2021/03/13 05:46:02;;;;;;;4.97;2.80;;;6.00;92.50;13.20;98888.00;;;;5034465;28;20737;-67
2021/03/13 05:48:29;;;;;;;5.32;2.30;;;6.00;92.50;13.00;98896.00;;;;5051589;28;20198;-67
2021/03/13 05:50:58;;;;;;;4.72;2.60;;;6.00;92.60;12.80;98896.00;;;;5034294;28;20293;-66
2021/03/13 05:53:24;;;;;;;5.07;3.15;;;6.00;92.50;12.90;98893.00;;;;5052125;28;20189;-66
2021/03/13 05:55:55;;;;;;;3.90;2.57;;;6.00;92.50;13.20;98903.00;;;;5051560;28;20198;-66
2021/03/13 05:58:24;;;;;;;5.20;2.78;;;6.00;92.50;13.10;98892.00;;;;5050999;28;20197;-66
2021/03/13 06:00:50;;;;;;;6.10;2.55;;;6.10;92.60;13.10;98902.00;;;;5051137;28;20198;-65
2021/03/13 06:03:16;;;;;;;4.33;2.53;;;6.00;92.50;13.30;98903.00;;;;5051784;28;20544;-66
2021/03/13 06:05:45;;;;;;;3.95;2.30;;;6.00;92.50;13.20;98895.00;;;;5050774;28;20471;-66
2021/03/13 06:08:13;;;;;;;6.30;2.70;;;6.00;92.50;13.20;98916.00;;;;5018506;28;20306;-65
2021/03/13 06:10:39;;;;;;;4.18;2.47;;;6.10;92.50;13.10;98891.00;;;;5051160;28;20210;-65
2021/03/13 06:13:06;;;;;;;4.90;2.60;;;6.10;92.90;13.40;98903.00;;;;5033998;28;20668;-65
2021/03/13 06:15:32;;;;;;;4.25;2.58;;;6.00;92.50;13.30;98898.00;;;;5051388;28;20390;-65
2021/03/13 06:18:02;;;;;;;4.93;2.60;;;6.00;92.50;13.20;98902.00;;;;5051336;28;20510;-65
2021/03/13 06:20:34;;;;;;;5.95;2.38;;;6.00;92.50;13.10;98903.00;;;;5035018;28;20588;-65
2021/03/13 06:23:07;;;;;;;4.30;2.28;;;6.00;92.50;13.20;98903.00;;;;5034921;28;20595;-65
2021/03/13 06:25:33;;;;;;;3.83;2.10;;;6.00;92.50;13.30;98898.00;;;;5049666;28;20283;-66
2021/03/13 06:28:15;;;;;;;4.85;2.60;;;6.10;92.50;13.20;98900.00;;;;5050339;28;20222;-66
2021/03/13 06:30:49;;;;;;;4.40;2.67;;;6.00;92.40;13.20;98903.00;;;;5067419;28;20212;-66
2021/03/13 06:33:30;;;;;;;4.38;2.45;;;6.10;92.50;13.20;98908.00;;;;5050688;28;20183;-66
2021/03/13 06:36:03;;;;;;;4.25;2.40;;;6.00;92.40;13.30;98913.00;;;;5050837;28;20304;-66
2021/03/13 06:38:31;;;;;;;4.57;2.65;;;6.00;92.50;13.30;98906.00;;;;5050711;28;20174;-66
2021/03/13 06:41:09;;;;;;;4.40;2.58;;;6.00;92.40;13.30;98907.00;;;;5050180;28;20205;-66
2021/03/13 06:43:34;;;;;;;4.43;2.30;;;6.00;92.40;13.30;98900.00;;;;5051246;28;20189;-66
2021/03/13 06:46:09;;;;;;;4.80;2.50;;;6.00;92.50;13.30;98929.00;;;;5051784;28;20206;-66
2021/03/13 06:48:52;;;;;;;3.60;2.20;;;6.00;92.50;13.20;98918.00;;;;5050851;28;20188;-66
2021/03/13 06:51:38;;;;;;;4.10;2.15;;;6.00;92.40;13.00;98895.00;;;;5050790;28;20206;-67
2021/03/13 06:54:19;;;;;;;3.55;2.25;;;6.00;92.50;12.90;98921.00;;;;5034285;28;20186;-66
2021/03/13 06:56:57;;;;;;;4.57;2.75;;;6.00;92.40;13.10;98921.00;;;;5052056;28;20220;-67
2021/03/13 06:59:35;;;;;;;5.53;2.83;;;6.00;92.40;13.10;98934.00;;;;5050815;28;20265;-66
2021/03/13 07:02:07;;;;;;;4.55;2.60;;;6.00;92.40;12.90;98936.00;;;;5050129;28;20576;-67
2021/03/13 07:04:43;;;;;;;3.70;2.10;;;6.00;92.40;13.00;98940.00;;;;5067394;28;20553;-67
2021/03/13 07:07:26;;;;;;;4.47;2.40;;;6.00;92.50;12.80;98923.00;;;;5066605;28;20375;-66
2021/03/13 07:09:53;;;;;;;4.03;2.20;;;6.00;92.40;13.00;98941.00;;;;5050151;28;20182;-67
2021/03/13 07:12:40;;;;;;;3.65;2.03;;;6.00;92.50;12.90;98946.00;;;;5050104;28;20264;-67
2021/03/13 07:15:22;;;;;;;5.03;2.53;;;6.10;92.50;13.10;98950.00;;;;5033610;28;20209;-66
2021/03/13 07:17:55;;;;;;;4.20;2.25;;;6.00;92.50;13.10;98946.00;;;;5032842;28;20194;-66
2021/03/13 07:20:29;;;;;;;4.65;2.22;;;6.00;92.50;13.10;98960.00;;;;5034544;28;20618;-66
2021/03/13 07:23:05;;;;;;;4.47;2.33;;;6.00;92.50;13.10;98942.00;;;;5049721;28;20201;-66
2021/03/13 07:25:31;;;;;;;3.88;2.17;;;6.00;92.50;13.10;98933.00;;;;5050102;28;20618;-66
2021/03/13 07:28:02;;;;;;;4.28;2.20;;;6.00;92.50;13.10;98946.00;;;;5049443;28;20270;-67
2021/03/13 07:30:30;;;;;;;5.63;2.40;;;6.00;92.50;13.10;98938.00;;;;5049351;28;20291;-66
2021/03/13 07:33:08;;;;;;;4.55;2.28;;;6.00;92.50;13.20;98944.00;;;;5033195;28;20182;-67
2021/03/13 07:35:37;;;;;;;4.20;2.20;;;6.00;92.50;13.20;98953.00;;;;5033770;28;20664;-67
2021/03/13 07:38:04;;;;;;;4.65;2.50;;;6.00;92.50;13.20;98941.00;;;;5049308;28;20175;-66
2021/03/13 07:40:30;;;;;;;5.30;2.65;;;6.00;92.50;13.20;98949.00;;;;5033418;28;20240;-66
2021/03/13 07:42:55;;;;;;;4.10;2.27;;;6.00;92.50;13.10;98943.00;;;;5032627;28;20221;-66
2021/03/13 07:45:21;;;;;;;4.17;2.27;;;6.00;92.60;13.20;98941.00;;;;5049106;28;20236;-66
2021/03/13 07:47:47;;;;;;;4.80;2.33;;;6.00;92.60;13.10;98943.00;;;;5032843;28;20447;-67
2021/03/13 07:50:14;;;;;;;4.23;2.63;;;6.00;92.60;13.20;98954.00;;;;5032630;28;20456;-67
2021/03/13 07:52:42;;;;;;;3.95;2.05;;;6.00;92.60;13.30;98961.00;;;;5033018;28;20407;-67
2021/03/13 07:55:13;;;;;;;5.45;2.65;;;6.00;92.60;13.20;98956.00;;;;5032948;28;20198;-67
2021/03/13 07:57:41;;;;;;;4.68;2.70;;;6.00;92.60;13.30;98954.00;;;;5031755;28;20600;-66
2021/03/13 08:00:08;;;;;;;4.05;2.25;;;6.00;92.60;13.20;98947.00;;;;5032801;28;20194;-66
2021/03/13 08:02:34;;;;;;;4.90;2.30;;;6.00;92.60;13.10;98951.00;;;;5032801;28;20356;-67
2021/03/13 08:05:16;;;;;;;5.20;2.47;;;6.00;92.60;13.30;98956.00;;;;5050352;28;20486;-66
2021/03/13 08:07:59;;;;;;;3.90;2.20;;;6.00;92.60;13.20;98946.00;;;;5048777;28;20205;-66
2021/03/13 08:10:50;;;;;;;3.85;1.98;;;6.00;92.60;13.10;98953.00;;;;5032858;28;20657;-66
2021/03/13 08:13:28;;;;;;;4.75;2.67;;;6.10;92.70;13.10;98948.00;;;;5048715;28;20221;-67
2021/03/13 08:16:12;;;;;;;5.72;2.70;;;6.00;92.70;13.10;98942.00;;;;5050596;28;20669;-67
2021/03/13 08:18:50;;;;;;;4.10;2.20;;;6.00;92.70;13.10;98946.00;;;;5064967;28;20200;-66
2021/03/13 08:21:19;;;;;;;5.25;2.70;;;6.00;92.70;13.30;98940.00;;;;5082549;28;20206;-67
2021/03/13 08:23:48;;;;;;;4.88;3.13;;;6.10;92.70;13.20;98934.00;;;;5049620;28;20591;-68
2021/03/13 08:26:14;;;;;;;5.25;2.30;;;6.00;92.70;13.20;98935.00;;;;5048761;28;20234;-67
2021/03/13 08:28:46;;;;;;;4.15;2.40;;;6.00;92.70;13.30;98940.00;;;;5065130;28;20232;-67
2021/03/13 08:31:33;;;;;;;4.30;2.50;;;6.10;92.70;13.30;98937.00;;;;5082120;28;20323;-67
2021/03/13 08:34:02;;;;;;;6.93;2.38;;;6.00;92.70;13.20;98938.00;;;;5049528;28;20193;-67
2021/03/13 08:36:33;;;;;;;4.93;2.70;;;6.10;92.70;13.30;98945.00;;;;5050215;28;20283;-67
2021/03/13 08:39:04;;;;;;;6.25;2.83;;;6.10;92.70;13.40;98928.00;;;;5048113;28;20178;-67
2021/03/13 08:41:44;;;;;;;4.95;3.00;;;6.10;92.80;13.40;98942.00;;;;5032454;28;20212;-66
2021/03/13 08:44:25;;;;;;;5.32;2.97;;;6.10;92.80;13.40;98920.00;;;;5082016;28;20213;-67
2021/03/13 08:46:58;;;;;;;5.65;2.70;;;6.10;92.80;13.30;98918.00;;;;5081401;28;20213;-67
2021/03/13 08:49:27;;;;;;;5.22;3.08;;;6.10;92.80;13.30;98917.00;;;;5064440;28;20205;-67
2021/03/13 08:52:05;;;;;;;5.07;2.70;;;6.10;92.80;13.30;98908.00;;;;5049717;28;20283;-66
2021/03/13 08:54:40;;;;;;;4.57;3.00;;;6.10;92.80;13.30;98907.00;;;;5049632;28;20178;-66
2021/03/13 08:57:07;;;;;;;5.47;3.03;;;6.10;92.70;13.30;98910.00;;;;5049667;28;20259;-67
2021/03/13 08:59:33;;;;;;;4.40;2.70;;;6.10;92.70;13.30;98902.00;;;;5031700;28;20218;-67
2021/03/13 09:02:18;;;;;;;5.75;3.15;;;6.10;92.70;13.50;98908.00;;;;5031560;28;20194;-67
2021/03/13 09:04:46;;;;;;;5.93;2.83;;;6.10;92.70;13.40;98903.00;;;;5048378;28;20181;-67
2021/03/13 09:07:12;;;;;;;4.20;2.42;;;6.10;92.70;13.40;98901.00;;;;5067498;28;20201;-67
2021/03/13 09:09:41;;;;;;;4.15;2.70;;;6.10;92.70;13.30;98893.00;;;;5056657;28;20190;-67
2021/03/13 09:12:10;;;;;;;4.60;2.60;;;6.10;92.70;13.50;98880.00;;;;5031384;28;20582;-67
2021/03/13 09:14:41;;;;;;;5.07;2.40;;;6.10;92.70;13.40;98886.00;;;;5046662;28;20192;-67
2021/03/13 09:17:18;;;;;;;5.25;2.17;;;6.10;92.70;13.50;98845.00;;;;5048166;28;20255;-66
2021/03/13 09:19:46;;;;;;;3.90;2.20;;;6.10;92.70;13.60;98882.00;;;;5063623;28;20170;-67
2021/03/13 09:22:18;;;;;;;3.92;2.10;;;6.10;92.70;13.60;98883.00;;;;5031458;28;20188;-67
2021/03/13 09:24:58;;;;;;;4.82;2.20;;;6.10;92.70;13.60;98879.00;;;;5047474;28;20664;-66
2021/03/13 09:27:32;;;;;;;3.55;2.20;;;6.10;92.70;13.50;98880.00;;;;5047161;28;20217;-66
2021/03/13 09:29:59;;;;;;;3.90;2.20;;;6.10;92.70;13.50;98871.00;;;;5031603;28;20212;-67
2021/03/13 09:32:26;;;;;;;4.88;2.10;;;6.10;92.70;13.50;98881.00;;;;5031558;28;20269;-67
2021/03/13 09:34:54;;;;;;;3.67;2.17;;;6.10;92.70;13.60;98877.00;;;;5030459;28;20249;-67
2021/03/13 09:37:27;;;;;;;4.82;2.38;;;6.10;92.80;13.70;98878.00;;;;5031021;28;20569;-67
2021/03/13 09:40:06;;;;;;;4.18;1.90;;;6.20;92.80;13.80;98874.00;;;;5047610;28;20178;-66
2021/03/13 09:42:32;;;;;;;4.10;2.40;;;6.20;92.80;13.70;98874.00;;;;5047499;28;20263;-67
2021/03/13 09:45:03;;;;;;;5.13;2.63;;;6.20;92.80;13.70;98861.00;;;;5047773;28;20665;-67
2021/03/13 09:47:29;;;;;;;4.97;2.50;;;6.20;92.80;13.60;98868.00;;;;5048410;28;20487;-67
2021/03/13 09:50:00;;;;;;;4.78;2.55;;;6.20;92.90;13.80;98862.00;;;;5048399;28;20193;-66
2021/03/13 09:52:31;;;;;;;3.92;2.13;;;6.20;92.90;13.70;98849.00;;;;5032563;28;20271;-67
2021/03/13 09:55:24;;;;;;;9.02;2.78;;;6.20;92.80;13.80;98858.00;;;;5030530;28;20269;-67
2021/03/13 09:57:54;;;;;;;3.80;2.20;;;6.20;92.90;13.60;98860.00;;;;5037063;28;20186;-67
2021/03/13 10:00:38;;;;;;;3.63;2.05;;;6.20;93.20;13.70;98863.00;;;;5034014;28;20594;-66
2021/03/13 10:03:10;;;;;;;3.80;2.10;;;6.20;92.90;13.70;98853.00;;;;5051132;28;20752;-66
2021/03/13 10:05:36;;;;;;;5.65;2.40;;;6.20;92.90;13.70;98816.00;;;;5034324;28;20556;-66
2021/03/13 10:08:14;;;;;;;3.83;2.40;;;6.20;92.90;13.70;98842.00;;;;5034338;28;20214;-68
2021/03/13 10:10:48;;;;;;;5.35;2.75;;;6.20;92.90;13.70;98843.00;;;;5033648;28;20452;-66
2021/03/13 10:13:16;;;;;;;4.85;2.70;;;6.20;92.90;13.70;98850.00;;;;5051555;28;20182;-67
2021/03/13 10:15:42;;;;;;;4.63;2.50;;;6.20;93.00;13.70;98830.00;;;;5034835;28;20708;-67
2021/03/13 10:18:15;;;;;;;3.83;2.13;;;6.20;93.00;13.60;98812.00;;;;5050899;28;20661;-67
2021/03/13 10:20:48;;;;;;;5.15;2.65;;;6.20;93.00;13.60;98821.00;;;;5035065;28;20210;-68
2021/03/13 10:23:32;;;;;;;4.25;2.42;;;6.20;93.00;13.60;98812.00;;;;5051224;28;20193;-66
2021/03/13 10:25:59;;;;;;;5.75;2.83;;;6.30;93.00;13.70;98798.00;;;;5052248;28;20623;-67
2021/03/13 10:28:38;;;;;;;3.78;2.00;;;6.30;93.00;13.70;98819.00;;;;5050750;28;20244;-66
2021/03/13 10:31:11;;;;;;;4.07;2.22;;;6.30;93.00;13.80;98809.00;;;;5033216;28;20233;-67
2021/03/13 10:33:41;;;;;;;4.28;2.05;;;6.30;93.00;13.80;98808.00;;;;5056587;28;20210;-67
2021/03/13 10:36:07;;;;;;;6.10;2.38;;;6.30;93.00;13.70;98795.00;;;;5034475;28;20234;-67
2021/03/13 10:38:43;;;;;;;4.53;1.70;;;6.30;93.00;13.80;98799.00;;;;5029109;28;20189;-68
2021/03/13 10:41:17;;;;;;;4.40;2.25;;;6.30;93.00;13.90;98796.00;;;;5037660;28;20281;-67
2021/03/13 10:43:46;;;;;;;3.30;1.70;;;6.30;93.00;13.80;98782.00;;;;5037847;28;20177;-67
2021/03/13 10:46:25;;;;;;;5.13;2.00;;;6.30;93.00;13.80;98786.00;;;;5052309;28;20216;-67
2021/03/13 10:48:54;;;;;;;4.03;1.88;;;6.30;93.00;13.70;98792.00;;;;5070285;28;20189;-67
2021/03/13 10:51:41;;;;;;;3.83;1.70;;;6.30;93.00;13.60;98792.00;;;;5054363;28;20768;-67
2021/03/13 10:54:23;;;;;;;4.88;1.85;;;6.30;93.00;13.50;98776.00;;;;5048901;28;20186;-67
2021/03/13 10:56:49;;;;;;;3.40;1.55;;;6.30;93.00;13.80;98768.00;;;;5033047;28;20254;-67
2021/03/13 10:59:14;;;;;;;4.53;2.00;;;6.30;93.00;13.70;98778.00;;;;5032518;28;20186;-69
2021/03/13 11:01:45;;;;;;;4.97;1.70;;;6.30;93.00;13.90;98781.00;;;;5032283;28;20577;-67
2021/03/13 11:04:11;;;;;;;3.58;1.60;;;6.30;93.00;13.80;98756.00;;;;5033050;28;20504;-67
2021/03/13 11:06:37;;;;;;;2.90;1.30;;;6.30;93.00;13.80;98782.00;;;;5051394;28;20198;-67
2021/03/13 11:09:09;;;;;;;4.10;1.95;;;6.30;93.00;13.70;98773.00;;;;5031715;28;20684;-68
2021/03/13 11:11:35;;;;;;;3.97;1.30;;;6.30;93.00;13.90;98769.00;;;;5032382;28;20219;-67
2021/03/13 11:14:01;;;;;;;3.55;1.50;;;6.30;93.00;13.80;98774.00;;;;5047715;28;20177;-67